createdAt,value
2023-01-30T00:01:50.860Z,6.80
2023-01-30T00:04:26.498Z,6.60
2023-01-30T00:07:02.641Z,6.50
2023-01-30T00:09:38.893Z,6.50
2023-01-30T00:12:15.341Z,6.50
2023-01-30T00:14:51.130Z,6.60
2023-01-30T00:17:29.928Z,6.80
2023-01-30T00:20:06.005Z,6.80
2023-01-30T00:22:52.417Z,6.70
2023-01-30T00:25:35.728Z,6.60
2023-01-30T00:28:11.828Z,6.60
2023-01-30T00:30:47.884Z,6.60
2023-01-30T00:33:26.805Z,6.80
2023-01-30T00:36:06.742Z,6.90
2023-01-30T00:38:45.412Z,6.90
2023-01-30T00:41:46.868Z,7.00
2023-01-30T00:44:38.457Z,7.20
2023-01-30T00:47:14.759Z,7.40
2023-01-30T00:49:54.296Z,7.50
2023-01-30T00:52:32.910Z,7.60
2023-01-30T00:55:10.539Z,7.90
2023-01-30T00:57:50.153Z,8.10
2023-01-30T01:00:27.511Z,8.30
2023-01-30T01:03:04.024Z,8.80
2023-01-30T01:05:44.985Z,9.10
2023-01-30T01:08:31.455Z,9.40
2023-01-30T01:11:08.970Z,9.30
2023-01-30T01:13:47.681Z,9.20
2023-01-30T01:16:29.591Z,9.70
2023-01-30T01:19:10.599Z,10.10
2023-01-30T01:21:51.001Z,10.30
2023-01-30T01:24:29.526Z,10.30
2023-01-30T01:27:05.647Z,10.30
2023-01-30T01:29:46.655Z,10.20
2023-01-30T01:32:25.608Z,10.20
2023-01-30T01:35:06.265Z,10.60
2023-01-30T01:37:48.212Z,10.90
2023-01-30T01:40:42.849Z,11.50
2023-01-30T01:43:30.160Z,11.40
2023-01-30T01:46:11.510Z,11.30
2023-01-30T01:48:52.524Z,11.20
2023-01-30T01:51:35.083Z,11.60
2023-01-30T01:54:21.444Z,12.00
2023-01-30T01:57:10.362Z,12.40
2023-01-30T01:59:53.956Z,12.40
2023-01-30T02:02:32.042Z,12.30
2023-01-30T02:05:13.087Z,12.40
2023-01-30T02:08:03.843Z,12.60
2023-01-30T02:10:51.957Z,12.40
2023-01-30T02:13:53.011Z,12.70
2023-01-30T02:16:34.892Z,12.70
2023-01-30T02:19:32.732Z,12.70
2023-01-30T02:22:50.527Z,13.10
2023-01-30T02:25:42.091Z,13.10
2023-01-30T02:28:56.300Z,13.40
2023-01-30T02:31:43.231Z,13.50
2023-01-30T02:34:38.967Z,13.30
2023-01-30T02:37:30.457Z,13.30
2023-01-30T02:40:26.369Z,13.30
2023-01-30T02:43:29.075Z,13.40
2023-01-30T02:46:17.013Z,13.60
2023-01-30T02:49:00.482Z,14.00
2023-01-30T02:51:44.890Z,13.80
2023-01-30T02:54:26.630Z,14.00
2023-01-30T02:57:16.766Z,14.20
2023-01-30T03:00:01.323Z,14.50
2023-01-30T03:03:18.121Z,14.40
2023-01-30T03:06:31.829Z,14.20
2023-01-30T03:09:20.980Z,14.00
2023-01-30T03:12:09.090Z,13.90
2023-01-30T03:14:53.519Z,14.40
2023-01-30T03:17:32.833Z,14.50
2023-01-30T03:20:16.391Z,14.60
2023-01-30T03:22:57.668Z,14.30
2023-01-30T03:25:34.713Z,14.30
2023-01-30T03:28:14.279Z,14.50
2023-01-30T03:30:55.648Z,14.60
2023-01-30T03:33:38.417Z,14.20
2023-01-30T03:36:22.959Z,14.50
2023-01-30T03:39:03.267Z,14.50
2023-01-30T03:41:42.186Z,14.70
2023-01-30T03:44:19.757Z,14.80
2023-01-30T03:46:58.425Z,14.50
2023-01-30T03:49:36.663Z,14.30
2023-01-30T03:52:13.543Z,14.50
2023-01-30T03:54:54.554Z,14.40
2023-01-30T03:57:31.301Z,14.50
2023-01-30T04:00:08.881Z,14.90
2023-01-30T04:02:56.811Z,15.00
2023-01-30T04:05:34.927Z,14.90
2023-01-30T04:08:14.445Z,15.30
2023-01-30T04:10:57.461Z,15.20
2023-01-30T04:13:37.065Z,15.30
2023-01-30T04:16:24.882Z,14.90
2023-01-30T04:19:20.004Z,15.30
2023-01-30T04:21:57.395Z,15.10
2023-01-30T04:24:34.786Z,15.30
2023-01-30T04:27:19.023Z,14.80
2023-01-30T04:30:23.536Z,14.30
2023-01-30T04:33:06.041Z,14.40
2023-01-30T04:35:43.580Z,14.30
2023-01-30T04:38:21.540Z,14.40
2023-01-30T04:41:01.759Z,14.50
2023-01-30T04:43:51.384Z,14.50
2023-01-30T04:46:52.824Z,14.60
2023-01-30T04:49:38.433Z,14.30
2023-01-30T04:52:37.146Z,14.60
2023-01-30T04:55:31.706Z,14.30
2023-01-30T04:58:20.643Z,14.10
2023-01-30T05:01:17.977Z,14.20
2023-01-30T05:03:59.011Z,14.50
2023-01-30T05:06:43.328Z,14.30
2023-01-30T05:09:26.051Z,14.10
2023-01-30T05:12:01.974Z,14.30
2023-01-30T05:14:42.717Z,14.20
2023-01-30T05:17:27.433Z,14.40
2023-01-30T05:20:04.207Z,14.60
2023-01-30T05:22:44.606Z,14.80
2023-01-30T05:25:22.203Z,14.70
2023-01-30T05:27:58.904Z,15.10
2023-01-30T05:30:40.182Z,14.70
2023-01-30T05:33:26.111Z,15.00
2023-01-30T05:36:09.453Z,14.90
2023-01-30T05:38:57.903Z,14.80
2023-01-30T05:41:34.752Z,14.70
2023-01-30T05:44:12.793Z,14.90
2023-01-30T05:46:56.204Z,14.60
2023-01-30T05:49:35.907Z,14.80
2023-01-30T05:52:14.236Z,15.00
2023-01-30T05:54:51.988Z,15.10
2023-01-30T05:57:29.444Z,15.40
2023-01-30T06:00:06.446Z,15.40
2023-01-30T06:02:48.798Z,15.30
2023-01-30T06:05:42.812Z,15.50
2023-01-30T06:08:19.617Z,15.40
2023-01-30T06:10:56.466Z,15.20
2023-01-30T06:13:37.885Z,15.50
2023-01-30T06:16:15.863Z,15.50
2023-01-30T06:18:56.249Z,15.30
2023-01-30T06:21:42.478Z,15.40
2023-01-30T06:24:18.472Z,15.30
2023-01-30T06:26:58.869Z,15.50
2023-01-30T06:29:38.411Z,15.30
2023-01-30T06:32:17.648Z,15.00
2023-01-30T06:34:54.639Z,14.60
2023-01-30T06:37:33.324Z,14.40
2023-01-30T06:40:12.293Z,14.40
2023-01-30T06:42:56.706Z,14.70
2023-01-30T06:45:35.514Z,14.90
2023-01-30T06:48:16.562Z,15.00
2023-01-30T06:50:54.460Z,15.20
2023-01-30T06:53:38.184Z,15.10
2023-01-30T06:56:21.285Z,15.10
2023-01-30T06:58:57.558Z,15.10
2023-01-30T07:01:35.166Z,15.20
2023-01-30T07:04:14.908Z,15.40
2023-01-30T07:06:51.521Z,15.50
2023-01-30T07:09:30.862Z,15.60
2023-01-30T07:12:10.436Z,15.70
2023-01-30T07:14:50.889Z,15.80
2023-01-30T07:17:37.127Z,15.70
2023-01-30T07:20:17.589Z,15.60
2023-01-30T07:22:59.308Z,15.20
2023-01-30T07:25:44.017Z,15.10
2023-01-30T07:28:26.807Z,15.00
2023-01-30T07:31:13.161Z,14.90
2023-01-30T07:33:53.444Z,14.90
2023-01-30T07:36:35.203Z,14.80
2023-01-30T07:39:14.668Z,14.80
2023-01-30T07:41:57.002Z,14.80
2023-01-30T07:44:39.097Z,14.80
2023-01-30T07:47:29.014Z,15.10
2023-01-30T07:50:06.755Z,15.20
2023-01-30T07:52:52.661Z,15.30
2023-01-30T07:55:35.786Z,15.40
2023-01-30T07:58:18.900Z,15.40
2023-01-30T08:01:00.700Z,15.30
2023-01-30T08:03:40.348Z,15.30
2023-01-30T08:06:17.841Z,15.20
2023-01-30T08:08:55.822Z,15.20
2023-01-30T08:11:36.542Z,15.10
2023-01-30T08:14:20.977Z,15.10
2023-01-30T08:17:04.579Z,15.10
2023-01-30T08:19:44.773Z,15.20
2023-01-30T08:22:25.939Z,14.90
2023-01-30T08:25:03.785Z,15.00
2023-01-30T08:27:40.391Z,15.00
2023-01-30T08:30:24.439Z,15.20
2023-01-30T08:33:00.763Z,15.10
2023-01-30T08:35:41.309Z,15.10
2023-01-30T08:38:27.864Z,14.90
2023-01-30T08:41:09.914Z,14.90
2023-01-30T08:43:47.892Z,14.90
2023-01-30T08:46:26.739Z,15.00
2023-01-30T08:49:07.413Z,14.90
2023-01-30T08:51:46.020Z,15.00
2023-01-30T08:54:23.352Z,15.00
2023-01-30T08:57:00.266Z,14.90
2023-01-30T08:59:37.727Z,14.90
2023-01-30T09:02:22.886Z,14.80
2023-01-30T09:05:03.859Z,14.80
2023-01-30T09:07:46.785Z,14.90
2023-01-30T09:10:33.534Z,14.80
2023-01-30T09:13:10.057Z,14.90
2023-01-30T09:15:51.152Z,14.90
2023-01-30T09:18:35.248Z,14.80
2023-01-30T09:21:21.142Z,14.70
2023-01-30T09:24:01.040Z,14.70
2023-01-30T09:26:42.167Z,14.70
2023-01-30T09:29:20.518Z,14.60
2023-01-30T09:32:02.064Z,14.60
2023-01-30T09:34:43.474Z,14.50
2023-01-30T09:37:20.985Z,14.40
2023-01-30T09:40:00.315Z,14.40
2023-01-30T09:43:01.630Z,14.40
2023-01-30T09:45:49.099Z,14.40
2023-01-30T09:48:35.948Z,14.30
2023-01-30T09:51:48.070Z,14.30
2023-01-30T09:54:35.012Z,14.30
2023-01-30T09:57:25.985Z,14.30
2023-01-30T10:00:24.741Z,14.10
2023-01-30T10:03:13.649Z,14.00
2023-01-30T10:05:55.792Z,13.90
2023-01-30T10:08:51.236Z,14.00
2023-01-30T10:11:42.464Z,13.90
2023-01-30T10:14:41.764Z,13.70
2023-01-30T10:17:39.157Z,13.60
2023-01-30T10:20:45.539Z,13.50
2023-01-30T10:23:49.899Z,13.40
2023-01-30T10:26:34.560Z,13.30
2023-01-30T10:29:17.506Z,13.40
2023-01-30T10:31:59.601Z,13.30
2023-01-30T10:34:43.395Z,13.30
2023-01-30T10:37:25.376Z,13.20
2023-01-30T10:40:15.800Z,13.20
2023-01-30T10:42:59.358Z,13.20
2023-01-30T10:45:45.681Z,13.10
2023-01-30T10:48:47.248Z,13.10
2023-01-30T10:51:45.166Z,13.00
2023-01-30T10:54:34.740Z,13.00
2023-01-30T10:57:27.368Z,12.90
2023-01-30T11:00:09.822Z,12.90
2023-01-30T11:03:00.134Z,12.90
2023-01-30T11:05:46.946Z,12.90
2023-01-30T11:08:33.982Z,12.90
2023-01-30T11:11:37.062Z,12.90
2023-01-30T11:14:18.387Z,12.80
2023-01-30T11:16:59.373Z,12.80
2023-01-30T11:19:42.304Z,12.80
2023-01-30T11:22:20.810Z,12.70
2023-01-30T11:25:24.653Z,12.70
2023-01-30T11:28:06.229Z,12.70
2023-01-30T11:30:49.956Z,12.70
2023-01-30T11:33:30.635Z,12.70
2023-01-30T11:36:15.473Z,12.60
2023-01-30T11:39:24.808Z,12.60
2023-01-30T11:42:12.638Z,12.60
2023-01-30T11:45:16.772Z,12.50
2023-01-30T11:48:04.765Z,12.60
2023-01-30T11:50:49.604Z,12.50
2023-01-30T11:53:36.823Z,12.40
2023-01-30T11:56:26.426Z,12.40
2023-01-30T11:59:16.248Z,12.40
2023-01-30T12:01:56.666Z,12.40
2023-01-30T12:04:41.937Z,12.30
2023-01-30T12:07:30.359Z,12.30
2023-01-30T12:10:36.073Z,12.20
2023-01-30T12:13:25.971Z,12.30
2023-01-30T12:16:23.545Z,12.30
2023-01-30T12:19:11.863Z,12.20
2023-01-30T12:22:04.417Z,12.20
2023-01-30T12:24:48.899Z,12.20
2023-01-30T12:27:38.181Z,12.20
2023-01-30T12:30:26.293Z,12.10
2023-01-30T12:33:12.699Z,12.10
2023-01-30T12:36:17.422Z,12.10
2023-01-30T12:39:20.602Z,12.00
2023-01-30T12:42:23.904Z,12.00
2023-01-30T12:45:26.109Z,12.00
2023-01-30T12:48:28.614Z,11.90
2023-01-30T12:51:19.840Z,11.90
2023-01-30T12:54:14.407Z,11.90
2023-01-30T12:57:01.952Z,11.90
2023-01-30T12:59:50.120Z,11.90
2023-01-30T13:06:37.211Z,11.90
2023-01-30T13:09:32.592Z,11.90
2023-01-30T13:12:16.457Z,12.00
2023-01-30T13:15:10.962Z,12.00
2023-01-30T13:18:34.154Z,11.90
2023-01-30T13:21:17.694Z,11.90
2023-01-30T13:24:29.292Z,11.90
2023-01-30T13:27:20.675Z,12.00
2023-01-30T13:30:04.175Z,11.90
2023-01-30T13:32:48.215Z,11.90
2023-01-30T13:35:44.096Z,11.90
2023-01-30T13:39:01.753Z,11.90
2023-01-30T13:42:04.937Z,11.90
2023-01-30T13:45:28.769Z,11.80
2023-01-30T13:48:15.976Z,11.90
2023-01-30T13:51:15.200Z,11.90
2023-01-30T13:53:56.533Z,11.80
2023-01-30T13:56:53.157Z,11.90
2023-01-30T13:59:56.639Z,11.80
2023-01-30T14:03:37.071Z,11.80
2023-01-30T14:06:42.990Z,11.70
2023-01-30T14:09:36.315Z,11.70
2023-01-30T14:12:29.173Z,11.70
2023-01-30T14:15:11.231Z,11.70
2023-01-30T14:18:08.981Z,11.60
2023-01-30T14:20:51.003Z,11.60
2023-01-30T14:23:31.889Z,11.50
2023-01-30T14:26:10.542Z,11.50
2023-01-30T14:28:57.612Z,11.40
2023-01-30T14:32:01.322Z,11.50
2023-01-30T14:35:29.229Z,11.40
2023-01-30T14:38:34.002Z,11.40
2023-01-30T14:42:21.932Z,11.40
2023-01-30T14:45:59.414Z,11.40
2023-01-30T14:49:45.026Z,11.40
2023-01-30T14:52:53.224Z,11.40
2023-01-30T14:55:33.736Z,11.30
2023-01-30T14:58:36.766Z,11.30
2023-01-30T15:01:23.486Z,11.30
2023-01-30T15:04:13.006Z,11.30
2023-01-30T15:06:51.208Z,11.30
2023-01-30T15:09:48.301Z,11.30
2023-01-30T15:12:51.446Z,11.20
2023-01-30T15:15:42.074Z,11.20
2023-01-30T15:18:40.510Z,11.10
2023-01-30T15:21:47.925Z,11.00
2023-01-30T15:25:00.860Z,10.80
2023-01-30T15:27:52.385Z,10.70
2023-01-30T15:30:44.560Z,10.60
2023-01-30T15:33:30.828Z,10.60
2023-01-30T15:36:34.873Z,10.50
2023-01-30T15:39:29.260Z,10.50
2023-01-30T15:42:20.623Z,10.50
2023-01-30T15:45:33.058Z,10.40
2023-01-30T15:48:39.024Z,10.40
2023-01-30T15:51:33.772Z,10.40
2023-01-30T15:54:32.973Z,10.30
2023-01-30T15:57:37.833Z,10.40
2023-01-30T16:00:30.430Z,10.40
2023-01-30T16:03:19.369Z,10.50
2023-01-30T16:05:58.542Z,10.40
2023-01-30T16:08:39.778Z,10.30
2023-01-30T16:11:19.456Z,10.30
2023-01-30T16:14:20.241Z,10.30
2023-01-30T16:17:04.977Z,10.30
2023-01-30T16:19:48.999Z,10.20
2023-01-30T16:22:31.751Z,10.30
2023-01-30T16:25:11.981Z,10.30
2023-01-30T16:27:55.451Z,10.30
2023-01-30T16:30:43.026Z,10.30
2023-01-30T16:33:23.416Z,10.20
2023-01-30T16:36:02.868Z,10.20
2023-01-30T16:38:48.629Z,10.20
2023-01-30T16:41:41.142Z,10.20
2023-01-30T16:44:28.051Z,10.20
2023-01-30T16:47:10.379Z,10.10
2023-01-30T16:49:54.816Z,10.10
2023-01-30T16:52:33.527Z,10.00
2023-01-30T16:55:32.943Z,10.00
2023-01-30T16:58:11.142Z,10.00
2023-01-30T17:01:03.924Z,10.00
2023-01-30T17:03:45.779Z,10.00
2023-01-30T17:06:32.338Z,10.00
2023-01-30T17:09:09.347Z,10.10
2023-01-30T17:11:46.765Z,10.10
2023-01-30T17:14:35.741Z,10.10
2023-01-30T17:17:23.728Z,10.10
2023-01-30T17:20:05.390Z,10.00
2023-01-30T17:22:46.880Z,10.00
2023-01-30T17:25:37.792Z,10.00
2023-01-30T17:28:18.613Z,10.10
2023-01-30T17:30:56.911Z,10.10
2023-01-30T17:33:34.473Z,10.10
2023-01-30T17:36:28.882Z,10.10
2023-01-30T17:39:08.687Z,10.10
2023-01-30T17:41:49.217Z,10.00
2023-01-30T17:44:27.843Z,10.00
2023-01-30T17:47:05.015Z,10.10
2023-01-30T17:49:42.949Z,10.10
2023-01-30T17:52:21.801Z,10.10
2023-01-30T17:54:58.469Z,10.10
2023-01-30T17:57:38.273Z,10.20
2023-01-30T18:00:20.427Z,10.20
2023-01-30T18:03:02.231Z,10.20
2023-01-30T18:05:41.224Z,10.20
2023-01-30T18:08:26.748Z,10.20
2023-01-30T18:11:03.407Z,10.20
2023-01-30T18:13:42.211Z,9.90
2023-01-30T18:16:24.333Z,10.00
2023-01-30T18:19:10.701Z,10.00
2023-01-30T18:21:51.265Z,9.90
2023-01-30T18:24:32.628Z,9.80
2023-01-30T18:27:08.435Z,9.80
2023-01-30T18:29:44.580Z,9.70
2023-01-30T18:32:20.712Z,9.60
2023-01-30T18:34:56.548Z,9.50
2023-01-30T18:37:37.036Z,9.60
2023-01-30T18:40:19.506Z,9.60
2023-01-30T18:43:00.299Z,9.60
2023-01-30T18:45:36.687Z,9.60
2023-01-30T18:48:14.488Z,9.60
2023-01-30T18:50:52.006Z,9.60
2023-01-30T18:53:27.897Z,9.60
2023-01-30T18:56:07.319Z,9.60
2023-01-30T18:58:46.364Z,9.40
2023-01-30T19:01:29.151Z,9.30
2023-01-30T19:04:06.541Z,9.30
2023-01-30T19:06:43.923Z,9.30
2023-01-30T19:09:21.700Z,9.30
2023-01-30T19:12:17.083Z,9.40
2023-01-30T19:14:52.711Z,9.40
2023-01-30T19:17:28.475Z,9.40
2023-01-30T19:20:10.039Z,9.50
2023-01-30T19:22:53.664Z,9.40
2023-01-30T19:25:29.522Z,9.40
2023-01-30T19:28:08.352Z,9.30
2023-01-30T19:30:44.681Z,9.20
2023-01-30T19:33:22.298Z,9.30
2023-01-30T19:35:59.318Z,9.40
2023-01-30T19:38:35.195Z,9.50
2023-01-30T19:41:15.290Z,9.60
2023-01-30T19:43:53.240Z,9.80
2023-01-30T19:46:30.497Z,9.80
2023-01-30T19:49:07.344Z,9.80
2023-01-30T19:51:43.512Z,9.70
2023-01-30T19:54:20.228Z,9.60
2023-01-30T19:56:56.077Z,9.60
2023-01-30T19:59:40.478Z,9.50
2023-01-30T20:02:17.121Z,9.40
2023-01-30T20:04:53.358Z,9.30
2023-01-30T20:07:33.844Z,9.20
2023-01-30T20:10:11.041Z,9.20
2023-01-30T20:12:46.601Z,9.20
2023-01-30T20:15:24.371Z,9.20
2023-01-30T20:17:59.468Z,9.20
2023-01-30T20:20:35.078Z,9.20
2023-01-30T20:23:10.571Z,9.10
2023-01-30T20:25:48.620Z,9.10
2023-01-30T20:28:24.559Z,9.10
2023-01-30T20:31:04.784Z,9.00
2023-01-30T20:33:40.783Z,9.00
2023-01-30T20:36:20.083Z,8.90
2023-01-30T20:39:12.967Z,9.00
2023-01-30T20:42:42.007Z,8.90
2023-01-30T20:45:17.714Z,8.90
2023-01-30T20:47:55.542Z,9.00
2023-01-30T20:50:30.872Z,9.00
2023-01-30T20:53:05.940Z,9.00
2023-01-30T20:55:41.273Z,9.10
2023-01-30T20:58:16.743Z,9.10
2023-01-30T21:00:52.467Z,9.10
2023-01-30T21:03:30.532Z,9.10
2023-01-30T21:06:06.458Z,9.20
2023-01-30T21:08:45.536Z,9.20
2023-01-30T21:11:21.938Z,9.20
2023-01-30T21:13:56.820Z,9.20
2023-01-30T21:16:33.153Z,9.10
2023-01-30T21:19:14.411Z,9.10
2023-01-30T21:21:51.949Z,9.00
2023-01-30T21:24:29.191Z,9.10
2023-01-30T21:27:05.439Z,9.00
2023-01-30T21:29:41.052Z,9.00
2023-01-30T21:32:16.842Z,9.00
2023-01-30T21:34:54.208Z,9.00
2023-01-30T21:37:45.336Z,9.00
2023-01-30T21:40:37.076Z,9.00
2023-01-30T21:43:18.706Z,9.10
2023-01-30T21:45:54.549Z,9.00
2023-01-30T21:48:29.737Z,9.00
2023-01-30T21:51:16.102Z,9.00
2023-01-30T21:53:51.091Z,8.80
2023-01-30T21:56:28.229Z,8.90
2023-01-30T21:59:05.357Z,8.80
2023-01-30T22:01:41.304Z,8.70
2023-01-30T22:04:18.055Z,8.90
2023-01-30T22:06:56.285Z,8.80
2023-01-30T22:09:32.520Z,8.70
2023-01-30T22:12:10.460Z,8.60
2023-01-30T22:14:46.006Z,8.50
2023-01-30T22:17:21.469Z,8.50
2023-01-30T22:19:57.149Z,8.40
2023-01-30T22:22:37.306Z,8.30
2023-01-30T22:25:13.384Z,8.40
2023-01-30T22:27:49.011Z,8.40
2023-01-30T22:30:24.806Z,8.30
2023-01-30T22:33:01.214Z,8.50
2023-01-30T22:35:37.202Z,8.40
2023-01-30T22:38:14.560Z,8.40
2023-01-30T22:40:50.512Z,8.40
2023-01-30T22:43:26.764Z,8.40
2023-01-30T22:46:06.221Z,8.30
2023-01-30T22:48:42.537Z,8.30
2023-01-30T22:51:19.900Z,8.30
2023-01-30T22:53:58.848Z,8.30
2023-01-30T22:56:35.950Z,8.30
2023-01-30T22:59:12.341Z,8.30
2023-01-30T23:01:52.079Z,8.30
2023-01-30T23:04:28.649Z,8.40
2023-01-30T23:07:05.192Z,8.50
2023-01-30T23:09:44.365Z,8.50
2023-01-30T23:12:47.839Z,8.40
2023-01-30T23:15:23.981Z,8.40
2023-01-30T23:18:16.703Z,8.40
2023-01-30T23:20:52.346Z,8.30
2023-01-30T23:23:28.796Z,8.30
2023-01-30T23:26:09.046Z,8.40
2023-01-30T23:28:45.420Z,8.20
2023-01-30T23:31:23.433Z,8.10
2023-01-30T23:34:01.540Z,8.10
2023-01-30T23:36:40.728Z,8.10
2023-01-30T23:39:19.829Z,8.10
2023-01-30T23:41:58.140Z,8.10
2023-01-30T23:44:36.495Z,8.10
2023-01-30T23:47:12.082Z,8.10
2023-01-30T23:49:57.303Z,8.00
2023-01-30T23:52:34.212Z,8.00
2023-01-30T23:55:13.276Z,8.10
2023-01-30T23:57:52.389Z,8.10
